createdAt,value
2024-03-01T00:01:11.462Z,393.40
2024-03-01T00:03:39.526Z,363.77
2024-03-01T00:06:07.384Z,378.10
2024-03-01T00:08:35.268Z,340.57
2024-03-01T00:11:03.110Z,283.43
2024-03-01T00:13:31.163Z,297.60
2024-03-01T00:16:01.074Z,296.93
2024-03-01T00:18:28.982Z,271.70
2024-03-01T00:20:56.847Z,297.37
2024-03-01T00:23:24.710Z,277.47
2024-03-01T00:25:52.567Z,248.63
2024-03-01T00:28:21.214Z,238.37
2024-03-01T00:30:49.284Z,222.97
2024-03-01T00:33:18.573Z,207.77
2024-03-01T00:35:46.442Z,182.07
2024-03-01T00:38:14.286Z,181.43
2024-03-01T00:40:42.164Z,218.70
2024-03-01T00:43:10.541Z,215.63
2024-03-01T00:45:38.546Z,274.10
2024-03-01T00:48:10.191Z,262.00
2024-03-01T00:50:39.648Z,225.90
2024-03-01T00:53:09.979Z,231.47
2024-03-01T00:55:38.749Z,196.47
2024-03-01T00:58:06.865Z,176.60
2024-03-01T01:00:34.852Z,161.47
2024-03-01T01:03:02.734Z,163.77
2024-03-01T01:05:30.548Z,169.37
2024-03-01T01:08:00.429Z,224.33
2024-03-01T01:10:29.741Z,168.83
2024-03-01T01:12:57.703Z,191.30
2024-03-01T01:15:25.562Z,144.80
2024-03-01T01:17:53.565Z,189.20
2024-03-01T01:20:21.565Z,190.00
2024-03-01T01:22:49.750Z,160.63
2024-03-01T01:25:19.480Z,161.03
2024-03-01T01:27:47.506Z,187.40
2024-03-01T01:30:15.563Z,181.37
2024-03-01T01:32:43.402Z,227.43
2024-03-01T01:35:11.245Z,163.37
2024-03-01T01:37:39.178Z,184.70
2024-03-01T01:40:09.601Z,242.77
2024-03-01T01:42:38.934Z,248.87
2024-03-01T01:45:08.034Z,348.13
2024-03-01T01:47:35.989Z,146.67
2024-03-01T01:50:04.627Z,141.47
2024-03-01T01:52:33.862Z,163.37
2024-03-01T01:55:01.925Z,176.87
2024-03-01T01:57:30.805Z,236.03
2024-03-01T02:00:00.834Z,167.33
2024-03-01T02:02:29.992Z,143.63
2024-03-01T02:04:57.962Z,149.00
2024-03-01T02:07:26.452Z,170.43
2024-03-01T02:09:54.589Z,269.83
2024-03-01T02:12:23.253Z,329.87
2024-03-01T02:14:52.115Z,381.43
2024-03-01T02:17:21.307Z,234.10
2024-03-01T02:19:49.650Z,198.10
2024-03-01T02:22:21.467Z,131.17
2024-03-01T02:24:52.330Z,124.60
2024-03-01T02:27:20.299Z,191.13
2024-03-01T02:29:48.312Z,124.43
2024-03-01T02:32:16.470Z,114.27
2024-03-01T02:34:45.273Z,104.90
2024-03-01T02:37:13.237Z,102.73
2024-03-01T02:39:41.157Z,157.53
2024-03-01T02:42:10.595Z,117.87
2024-03-01T02:44:38.467Z,117.80
2024-03-01T02:47:06.641Z,169.20
2024-03-01T02:49:34.856Z,176.83
2024-03-01T02:52:02.846Z,137.37
2024-03-01T02:54:30.751Z,116.63
2024-03-01T02:56:59.465Z,96.20
2024-03-01T02:59:28.672Z,119.83
2024-03-01T03:01:56.574Z,123.30
2024-03-01T03:04:24.578Z,133.10
2024-03-01T03:06:55.491Z,98.27
2024-03-01T03:09:27.074Z,108.43
2024-03-01T03:11:54.982Z,101.00
2024-03-01T03:14:22.879Z,105.60
2024-03-01T03:16:53.666Z,139.60
2024-03-01T03:19:21.572Z,102.13
2024-03-01T03:21:49.652Z,118.80
2024-03-01T03:24:17.519Z,105.80
2024-03-01T03:26:45.728Z,95.67
2024-03-01T03:29:13.569Z,105.10
2024-03-01T03:31:42.388Z,96.80
2024-03-01T03:34:12.443Z,119.13
2024-03-01T03:36:40.471Z,112.40
2024-03-01T03:39:08.658Z,96.20
2024-03-01T03:41:36.714Z,105.97
2024-03-01T03:44:04.555Z,105.00
2024-03-01T03:46:32.528Z,95.57
2024-03-01T03:49:00.663Z,95.33
2024-03-01T03:51:31.840Z,101.83
2024-03-01T03:53:59.693Z,91.20
2024-03-01T03:56:28.003Z,102.40
2024-03-01T03:58:55.823Z,99.97
2024-03-01T04:01:24.047Z,95.17
2024-03-01T04:03:52.445Z,97.47
2024-03-01T04:06:20.509Z,99.97
2024-03-01T04:08:50.495Z,89.30
2024-03-01T04:11:18.460Z,86.60
2024-03-01T04:13:47.470Z,92.07
2024-03-01T04:16:15.395Z,90.17
2024-03-01T04:18:43.281Z,91.83
2024-03-01T04:21:11.199Z,96.07
2024-03-01T04:23:39.332Z,94.90
2024-03-01T04:26:10.565Z,97.17
2024-03-01T04:28:42.313Z,104.60
2024-03-01T04:31:10.311Z,96.87
2024-03-01T04:33:41.385Z,90.40
2024-03-01T04:36:09.399Z,93.60
2024-03-01T04:38:37.997Z,89.03
2024-03-01T04:41:07.043Z,88.57
2024-03-01T04:43:36.367Z,89.03
2024-03-01T04:46:04.916Z,90.50
2024-03-01T04:48:32.822Z,94.93
2024-03-01T04:51:00.628Z,98.17
2024-03-01T04:53:28.455Z,102.03
2024-03-01T04:55:56.297Z,94.07
2024-03-01T04:58:24.306Z,98.70
2024-03-01T05:00:54.001Z,95.80
2024-03-01T05:03:22.109Z,96.67
2024-03-01T05:05:50.271Z,95.27
2024-03-01T05:08:20.714Z,96.57
2024-03-01T05:10:51.034Z,98.40
2024-03-01T05:13:19.722Z,94.47
2024-03-01T05:15:48.335Z,90.60
2024-03-01T05:18:18.900Z,93.43
2024-03-01T05:20:47.323Z,87.57
2024-03-01T05:23:15.268Z,95.53
2024-03-01T05:25:43.717Z,95.23
2024-03-01T05:28:11.746Z,92.07
2024-03-01T05:30:49.305Z,92.30
2024-03-01T05:33:21.606Z,97.97
2024-03-01T05:35:49.853Z,93.43
2024-03-01T05:38:17.688Z,97.30
2024-03-01T05:40:51.383Z,98.10
2024-03-01T05:43:23.701Z,101.47
2024-03-01T05:45:54.689Z,101.07
2024-03-01T05:48:24.560Z,93.80
2024-03-01T05:50:54.050Z,102.50
2024-03-01T05:53:21.958Z,94.40
2024-03-01T05:55:51.007Z,103.13
2024-03-01T05:58:20.315Z,101.03
2024-03-01T06:00:48.521Z,93.47
2024-03-01T06:03:17.692Z,108.07
2024-03-01T06:05:46.866Z,97.87
2024-03-01T06:08:14.927Z,101.83
2024-03-01T06:11:02.789Z,110.83
2024-03-01T06:13:30.727Z,115.57
2024-03-01T06:15:58.629Z,101.50
2024-03-01T06:18:26.498Z,103.77
2024-03-01T06:20:55.816Z,99.97
2024-03-01T06:23:23.704Z,104.03
2024-03-01T06:25:51.708Z,92.00
2024-03-01T06:28:19.671Z,93.73
2024-03-01T06:30:47.971Z,93.60
2024-03-01T06:33:16.035Z,91.90
2024-03-01T06:35:43.860Z,86.57
2024-03-01T06:38:13.158Z,97.07
2024-03-01T06:40:41.193Z,94.27
2024-03-01T06:43:09.086Z,95.67
2024-03-01T06:45:36.917Z,96.97
2024-03-01T06:48:05.798Z,103.23
2024-03-01T06:50:33.654Z,88.07
2024-03-01T06:53:01.488Z,99.17
2024-03-01T06:55:30.721Z,92.90
2024-03-01T06:58:03.578Z,113.53
2024-03-01T07:00:32.306Z,91.47
2024-03-01T07:03:00.382Z,115.43
2024-03-01T07:05:28.376Z,116.30
2024-03-01T07:07:56.727Z,103.80
2024-03-01T07:10:24.690Z,109.97
2024-03-01T07:12:54.697Z,114.07
2024-03-01T07:15:22.586Z,103.20
2024-03-01T07:17:53.551Z,102.30
2024-03-01T07:20:21.439Z,104.60
2024-03-01T07:22:50.285Z,111.87
2024-03-01T07:25:18.396Z,104.70
2024-03-01T07:27:46.351Z,108.60
2024-03-01T07:30:16.259Z,105.83
2024-03-01T07:32:44.170Z,93.37
2024-03-01T07:35:12.016Z,109.37
2024-03-01T07:37:41.091Z,96.70
2024-03-01T07:40:10.287Z,96.37
2024-03-01T07:42:38.641Z,101.47
2024-03-01T07:45:08.150Z,100.93
2024-03-01T07:47:37.352Z,95.77
2024-03-01T07:50:06.115Z,97.40
2024-03-01T07:52:34.130Z,92.20
2024-03-01T07:55:02.137Z,84.07
2024-03-01T07:57:30.051Z,89.67
2024-03-01T07:59:58.141Z,95.43
2024-03-01T08:02:26.071Z,94.50
2024-03-01T08:04:55.696Z,94.60
2024-03-01T08:07:23.588Z,95.80
2024-03-01T08:09:51.628Z,99.80
2024-03-01T08:12:20.122Z,85.50
2024-03-01T08:14:48.422Z,100.00
2024-03-01T08:17:16.313Z,91.90
2024-03-01T08:19:46.696Z,101.53
2024-03-01T08:22:17.821Z,97.37
2024-03-01T08:24:47.426Z,94.57
2024-03-01T08:27:17.316Z,95.63
2024-03-01T08:29:45.596Z,87.83
2024-03-01T08:32:28.993Z,95.27
2024-03-01T08:34:59.430Z,95.97
2024-03-01T08:37:30.993Z,100.60
2024-03-01T08:39:59.373Z,91.50
2024-03-01T08:42:30.222Z,103.93
2024-03-01T08:45:00.890Z,98.13
2024-03-01T08:47:32.491Z,96.23
2024-03-01T08:50:39.183Z,97.67
2024-03-01T08:53:56.701Z,115.63
2024-03-01T08:56:29.048Z,112.97
2024-03-01T08:58:58.129Z,151.57
2024-03-01T09:01:48.556Z,149.00
2024-03-01T09:04:26.160Z,136.33
2024-03-01T09:07:09.177Z,133.07
2024-03-01T09:09:40.494Z,125.13
2024-03-01T09:12:10.427Z,126.33
2024-03-01T09:14:38.320Z,125.40
2024-03-01T09:17:07.540Z,115.57
2024-03-01T09:19:41.086Z,128.93
2024-03-01T09:22:09.165Z,141.43
2024-03-01T09:24:40.542Z,131.03
2024-03-01T09:27:27.529Z,125.07
2024-03-01T09:29:56.512Z,141.73
2024-03-01T09:32:24.806Z,152.53
2024-03-01T09:34:53.057Z,139.57
2024-03-01T09:37:22.639Z,149.83
2024-03-01T09:39:52.413Z,144.80
2024-03-01T09:42:45.916Z,125.93
2024-03-01T09:45:47.298Z,129.20
2024-03-01T09:48:38.537Z,151.33
2024-03-01T09:51:21.244Z,163.57
2024-03-01T09:54:11.861Z,153.60
2024-03-01T09:56:57.338Z,206.70
2024-03-01T09:59:34.946Z,179.33
2024-03-01T10:02:13.314Z,132.47
2024-03-01T10:04:53.126Z,139.80
2024-03-01T10:07:28.479Z,144.73
2024-03-01T10:10:27.400Z,123.23
2024-03-01T10:13:00.910Z,123.70
2024-03-01T10:15:38.922Z,115.40
2024-03-01T10:18:22.777Z,117.00
2024-03-01T10:21:00.223Z,113.10
2024-03-01T10:23:44.268Z,102.20
2024-03-01T10:26:20.529Z,115.83
2024-03-01T10:29:10.178Z,105.97
2024-03-01T10:31:44.654Z,112.73
2024-03-01T10:34:20.723Z,109.90
2024-03-01T10:36:54.651Z,97.20
2024-03-01T10:39:31.979Z,98.03
2024-03-01T10:42:09.267Z,107.33
2024-03-01T10:44:45.469Z,101.10
2024-03-01T10:47:22.229Z,106.93
2024-03-01T10:50:08.394Z,99.30
2024-03-01T10:52:39.155Z,105.57
2024-03-01T10:55:23.273Z,102.33
2024-03-01T10:58:01.457Z,98.33
2024-03-01T11:00:30.870Z,104.00
2024-03-01T11:03:07.708Z,99.60
2024-03-01T11:05:40.616Z,96.83
2024-03-01T11:08:23.895Z,101.10
2024-03-01T11:10:58.720Z,99.03
2024-03-01T11:13:30.289Z,98.20
2024-03-01T11:16:00.750Z,103.27
2024-03-01T11:18:43.079Z,93.00
2024-03-01T11:21:13.385Z,93.17
2024-03-01T11:23:44.917Z,101.30
2024-03-01T11:26:17.405Z,98.97
2024-03-01T11:28:50.383Z,99.40
2024-03-01T11:31:22.460Z,102.23
2024-03-01T11:33:53.215Z,106.30
2024-03-01T11:36:41.164Z,93.27
2024-03-01T11:39:23.690Z,96.07
2024-03-01T11:41:54.838Z,99.93
2024-03-01T11:44:35.221Z,94.93
2024-03-01T11:47:16.887Z,86.13
2024-03-01T11:50:08.269Z,93.40
2024-03-01T11:52:54.675Z,98.43
2024-03-01T11:55:40.129Z,96.67
2024-03-01T11:58:22.177Z,92.20
2024-03-01T12:01:08.388Z,91.60
2024-03-01T12:04:25.304Z,93.83
2024-03-01T12:07:12.652Z,93.23
2024-03-01T12:09:53.694Z,112.33
2024-03-01T12:12:36.225Z,104.77
2024-03-01T12:15:10.280Z,100.50
2024-03-01T12:17:45.297Z,97.97
2024-03-01T12:20:17.520Z,92.30
2024-03-01T12:22:54.706Z,93.00
2024-03-01T12:25:26.998Z,86.83
2024-03-01T12:28:14.710Z,87.70
2024-03-01T12:30:58.337Z,89.00
2024-03-01T12:33:47.357Z,85.93
2024-03-01T12:36:33.116Z,90.37
2024-03-01T12:39:12.733Z,94.97
2024-03-01T12:41:55.479Z,88.60
2024-03-01T12:44:31.937Z,90.20
2024-03-01T12:47:24.803Z,84.33
2024-03-01T12:50:07.504Z,83.17
2024-03-01T12:52:56.975Z,84.77
2024-03-01T12:55:35.108Z,88.03
2024-03-01T12:58:11.850Z,82.30
2024-03-01T13:00:47.652Z,84.80
2024-03-01T13:03:28.567Z,94.20
2024-03-01T13:05:57.056Z,80.60
2024-03-01T13:08:28.937Z,79.73
2024-03-01T13:11:06.187Z,81.47
2024-03-01T13:13:38.329Z,77.97
2024-03-01T13:16:10.356Z,79.40
2024-03-01T13:18:46.338Z,75.10
2024-03-01T13:21:21.825Z,78.40
2024-03-01T13:24:01.038Z,88.07
2024-03-01T13:26:40.206Z,80.67
2024-03-01T13:29:14.218Z,88.43
2024-03-01T13:31:49.777Z,78.00
2024-03-01T13:34:25.319Z,77.80
2024-03-01T13:37:05.528Z,80.03
2024-03-01T13:39:40.277Z,75.70
2024-03-01T13:42:26.902Z,82.23
2024-03-01T13:45:01.225Z,79.10
2024-03-01T13:47:32.408Z,85.60
2024-03-01T13:50:08.508Z,79.87
2024-03-01T13:52:38.085Z,82.03
2024-03-01T13:55:11.574Z,81.47
2024-03-01T13:57:42.648Z,76.17
2024-03-01T14:00:16.082Z,78.27
2024-03-01T14:02:44.698Z,100.93
2024-03-01T14:05:15.599Z,83.50
2024-03-01T14:07:47.599Z,79.87
2024-03-01T14:10:15.918Z,81.13
2024-03-01T14:12:45.954Z,87.43
2024-03-01T14:15:14.790Z,91.87
2024-03-01T14:17:55.916Z,84.30
2024-03-01T14:20:23.883Z,80.77
2024-03-01T14:22:54.225Z,78.60
2024-03-01T14:25:23.197Z,81.03
2024-03-01T14:27:55.653Z,80.27
2024-03-01T14:30:26.693Z,78.47
2024-03-01T14:32:56.416Z,77.10
2024-03-01T14:35:26.160Z,77.97
2024-03-01T14:37:56.076Z,78.90
2024-03-01T14:40:27.697Z,79.67
2024-03-01T14:43:00.602Z,80.63
2024-03-01T14:45:39.277Z,79.40
2024-03-01T14:48:09.797Z,82.07
2024-03-01T14:50:44.613Z,80.60
2024-03-01T14:53:17.349Z,82.10
2024-03-01T14:55:45.897Z,244.00
2024-03-01T14:58:17.065Z,135.13
2024-03-01T15:00:46.632Z,135.20
2024-03-01T15:03:14.550Z,131.67
2024-03-01T15:05:42.475Z,133.43
2024-03-01T15:08:12.264Z,129.73
2024-03-01T15:10:44.002Z,129.47
2024-03-01T15:13:12.092Z,128.93
2024-03-01T15:15:48.082Z,131.20
2024-03-01T15:18:21.315Z,135.80
2024-03-01T15:20:49.495Z,133.43
2024-03-01T15:23:18.548Z,125.63
2024-03-01T15:25:46.457Z,119.53
2024-03-01T15:28:15.006Z,121.67
2024-03-01T15:30:43.748Z,115.57
2024-03-01T15:33:14.937Z,120.27
2024-03-01T15:35:42.884Z,118.70
2024-03-01T15:38:10.673Z,115.37
2024-03-01T15:40:39.374Z,116.40
2024-03-01T15:43:07.920Z,118.47
2024-03-01T15:45:35.916Z,115.93
2024-03-01T15:48:04.211Z,110.07
2024-03-01T15:50:34.360Z,104.60
2024-03-01T15:53:04.049Z,108.80
2024-03-01T15:55:32.999Z,108.50
2024-03-01T15:58:01.516Z,109.83
2024-03-01T16:00:30.172Z,103.27
2024-03-01T16:02:58.124Z,104.13
2024-03-01T16:05:26.009Z,120.37
2024-03-01T16:07:55.348Z,104.63
2024-03-01T16:10:23.522Z,106.07
2024-03-01T16:12:53.351Z,115.77
2024-03-01T16:15:22.055Z,117.00
2024-03-01T16:17:51.682Z,116.73
2024-03-01T16:20:20.106Z,118.33
2024-03-01T16:22:50.588Z,119.33
2024-03-01T16:25:20.320Z,167.20
2024-03-01T16:27:48.681Z,145.43
2024-03-01T16:30:25.340Z,2266.67
2024-03-01T16:32:54.273Z,1297.63
2024-03-01T16:36:08.591Z,1384.70
2024-03-01T16:38:37.630Z,2266.67
2024-03-01T16:41:32.726Z,2266.67
2024-03-01T16:44:02.365Z,2266.67
2024-03-01T16:46:33.261Z,2266.67
2024-03-01T16:49:03.020Z,2266.67
2024-03-01T16:51:41.852Z,2266.67
2024-03-01T16:54:27.794Z,2266.67
2024-03-01T16:57:00.583Z,2266.67
2024-03-01T16:59:29.007Z,2266.67
2024-03-01T17:01:57.595Z,2266.67
2024-03-01T17:04:30.510Z,2266.67
2024-03-01T17:07:01.348Z,2266.67
2024-03-01T17:09:32.341Z,2266.67
2024-03-01T17:12:01.670Z,2266.67
2024-03-01T17:14:29.642Z,2266.67
2024-03-01T17:17:01.378Z,2266.67
2024-03-01T17:19:46.201Z,2266.67
2024-03-01T17:22:18.195Z,2266.67
2024-03-01T17:24:48.649Z,2266.67
2024-03-01T17:27:18.283Z,2266.67
2024-03-01T17:29:47.073Z,2266.67
2024-03-01T17:32:15.722Z,2266.67
2024-03-01T17:34:44.024Z,2266.67
2024-03-01T17:37:12.500Z,2266.67
2024-03-01T17:39:41.672Z,2266.67
2024-03-01T17:42:12.730Z,2266.67
2024-03-01T17:44:42.477Z,2266.67
2024-03-01T17:47:10.741Z,2266.67
2024-03-01T17:49:38.958Z,2266.67
2024-03-01T17:52:07.749Z,2266.67
2024-03-01T17:54:36.580Z,2266.67
2024-03-01T17:57:06.668Z,2266.67
2024-03-01T17:59:34.899Z,2266.67
2024-03-01T18:02:08.484Z,2266.67
2024-03-01T18:04:37.340Z,2266.67
2024-03-01T18:07:05.242Z,2266.67
2024-03-01T18:09:33.193Z,2266.67
2024-03-01T18:12:01.009Z,2266.67
2024-03-01T18:14:28.864Z,2266.67
2024-03-01T18:16:56.826Z,2266.67
2024-03-01T18:19:26.114Z,2266.67
2024-03-01T18:21:54.990Z,2266.67
2024-03-01T18:24:23.033Z,2266.67
2024-03-01T18:26:51.126Z,2266.67
2024-03-01T18:29:19.032Z,2266.67
2024-03-01T18:31:47.262Z,2266.67
2024-03-01T18:34:15.191Z,2266.67
2024-03-01T18:36:44.706Z,2266.67
2024-03-01T18:39:12.524Z,2266.67
2024-03-01T18:41:40.360Z,2266.67
2024-03-01T18:44:09.134Z,2266.67
2024-03-01T18:46:38.268Z,2266.67
2024-03-01T18:49:06.583Z,2266.67
2024-03-01T18:51:34.967Z,2266.67
2024-03-01T18:54:04.938Z,2266.67
2024-03-01T18:56:34.785Z,2266.67
2024-03-01T18:59:04.328Z,2266.67
2024-03-01T19:01:32.570Z,2266.67
2024-03-01T19:04:00.916Z,2266.67
2024-03-01T19:06:28.947Z,2266.67
2024-03-01T19:08:56.815Z,2266.67
2024-03-01T19:11:26.537Z,2266.67
2024-03-01T19:13:55.951Z,2266.67
2024-03-01T19:16:23.872Z,2266.67
2024-03-01T19:18:51.762Z,2266.67
2024-03-01T19:21:19.758Z,2266.67
2024-03-01T19:23:47.787Z,2266.67
2024-03-01T19:26:17.541Z,2266.67
2024-03-01T19:28:47.320Z,2266.67
2024-03-01T19:31:15.292Z,2266.67
2024-03-01T19:33:43.227Z,2266.67
2024-03-01T19:36:11.075Z,2266.67
2024-03-01T19:38:39.115Z,2266.67
2024-03-01T19:41:06.975Z,2266.67
2024-03-01T19:43:34.896Z,2266.67
2024-03-01T19:46:04.761Z,2266.67
2024-03-01T19:48:32.652Z,2266.67
2024-03-01T19:51:00.517Z,2266.67
2024-03-01T19:53:28.370Z,2266.67
2024-03-01T19:55:56.169Z,2266.67
2024-03-01T19:58:24.016Z,2266.67
2024-03-01T20:00:52.051Z,2266.67
2024-03-01T20:03:21.392Z,2266.67
2024-03-01T20:05:49.409Z,2266.67
2024-03-01T20:08:17.597Z,2266.67
2024-03-01T20:10:45.651Z,2266.67
2024-03-01T20:13:13.692Z,2266.67
2024-03-01T20:15:41.738Z,2266.67
2024-03-01T20:18:10.349Z,2266.67
2024-03-01T20:20:39.656Z,2266.67
2024-03-01T20:23:07.711Z,2266.67
2024-03-01T20:25:36.564Z,2266.67
2024-03-01T20:28:06.199Z,2266.67
2024-03-01T20:30:34.184Z,2266.67
2024-03-01T20:33:02.135Z,2266.67
2024-03-01T20:35:29.986Z,2266.67
2024-03-01T20:37:59.144Z,2266.67
2024-03-01T20:40:27.112Z,2266.67
2024-03-01T20:42:55.819Z,2266.67
2024-03-01T20:45:24.503Z,2266.67
2024-03-01T20:47:52.962Z,2266.67
2024-03-01T20:50:21.519Z,2266.67
2024-03-01T20:52:49.673Z,2266.67
2024-03-01T20:55:18.981Z,2266.67
2024-03-01T20:57:46.967Z,2266.67
2024-03-01T21:00:16.864Z,2266.67
2024-03-01T21:02:45.494Z,2266.67
2024-03-01T21:05:13.611Z,2266.67
2024-03-01T21:07:41.598Z,2266.67
2024-03-01T21:10:10.805Z,2266.67
2024-03-01T21:12:40.126Z,2266.67
2024-03-01T21:15:10.660Z,2266.67
2024-03-01T21:17:39.051Z,2266.67
2024-03-01T21:20:08.941Z,2266.67
2024-03-01T21:25:11.665Z,2266.67
2024-03-01T21:27:42.662Z,2266.67
2024-03-01T21:30:11.609Z,2266.67
2024-03-01T21:32:40.612Z,2266.67
2024-03-01T21:35:09.519Z,2266.67
2024-03-01T21:37:37.453Z,2266.67
2024-03-01T21:40:12.209Z,2266.67
2024-03-01T21:42:41.402Z,2266.67
2024-03-01T21:45:10.447Z,2266.67
2024-03-01T21:47:38.312Z,2266.67
2024-03-01T21:50:07.416Z,2266.67
2024-03-01T21:52:35.493Z,2266.67
2024-03-01T21:55:03.546Z,2266.67
2024-03-01T21:57:31.846Z,2266.67
2024-03-01T22:00:01.189Z,2266.67
2024-03-01T22:02:29.059Z,2266.67
2024-03-01T22:05:01.511Z,2266.67
2024-03-01T22:07:31.486Z,2266.67
2024-03-01T22:10:00.980Z,2266.67
2024-03-01T22:12:29.513Z,2266.67
2024-03-01T22:14:57.484Z,2266.67
2024-03-01T22:17:27.087Z,2266.67
2024-03-01T22:19:54.976Z,2266.67
2024-03-01T22:22:22.885Z,2266.67
2024-03-01T22:24:51.031Z,2266.67
2024-03-01T22:27:19.131Z,2266.67
2024-03-01T22:29:50.008Z,2266.67
2024-03-01T22:32:18.662Z,2266.67
2024-03-01T22:34:48.088Z,2266.67
2024-03-01T22:37:16.638Z,2266.67
2024-03-01T22:39:46.168Z,2266.67
2024-03-01T22:42:15.297Z,2266.67
2024-03-01T22:44:43.290Z,2266.67
2024-03-01T22:47:14.282Z,2266.67
2024-03-01T22:49:43.941Z,2266.67
2024-03-01T22:52:16.188Z,2266.67
2024-03-01T22:54:44.715Z,2266.67
2024-03-01T22:57:16.538Z,2266.67
2024-03-01T23:00:19.580Z,2266.67
2024-03-01T23:02:52.045Z,2266.67
2024-03-01T23:05:42.855Z,2266.67
2024-03-01T23:08:38.691Z,2266.67
2024-03-01T23:11:08.165Z,2266.67
2024-03-01T23:13:40.573Z,2266.67
2024-03-01T23:16:09.246Z,2266.67
2024-03-01T23:18:37.643Z,2266.67
2024-03-01T23:21:05.907Z,2266.67
2024-03-01T23:23:35.659Z,2266.67
2024-03-01T23:26:03.532Z,2266.67
2024-03-01T23:28:31.627Z,2266.67
2024-03-01T23:30:59.693Z,2266.67
2024-03-01T23:33:27.548Z,2266.67
2024-03-01T23:35:56.373Z,2266.67
2024-03-01T23:38:24.261Z,2266.67
2024-03-01T23:40:54.980Z,2266.67
2024-03-01T23:43:24.198Z,2266.67
2024-03-01T23:45:52.392Z,2266.67
2024-03-01T23:48:21.331Z,2266.67
2024-03-01T23:50:50.199Z,2266.67
2024-03-01T23:53:19.234Z,2266.67
2024-03-01T23:55:47.674Z,2266.67
2024-03-01T23:58:16.873Z,2266.67
